sensor_id;sensor_type;location;lat;lon;timestamp;P1;durP1;ratioP1;P2;durP2;ratioP2
9115;SDS011;4593;53.652;10.168;2022-10-16T00:00:38;4.37;;;3.83;;
9115;SDS011;4593;53.652;10.168;2022-10-16T00:03:05;4.43;;;3.47;;
9115;SDS011;4593;53.652;10.168;2022-10-16T00:05:31;4.03;;;3.13;;
9115;SDS011;4593;53.652;10.168;2022-10-16T00:07:57;4.77;;;3.70;;
9115;SDS011;4593;53.652;10.168;2022-10-16T00:10:23;4.67;;;3.50;;
9115;SDS011;4593;53.652;10.168;2022-10-16T00:12:49;5.53;;;3.50;;
9115;SDS011;4593;53.652;10.168;2022-10-16T00:15:16;6.37;;;3.80;;
9115;SDS011;4593;53.652;10.168;2022-10-16T00:17:42;6.83;;;3.50;;
9115;SDS011;4593;53.652;10.168;2022-10-16T00:20:08;7.63;;;3.67;;
9115;SDS011;4593;53.652;10.168;2022-10-16T00:22:34;4.90;;;4.10;;
9115;SDS011;4593;53.652;10.168;2022-10-16T00:25:00;5.80;;;4.30;;
9115;SDS011;4593;53.652;10.168;2022-10-16T00:27:26;4.93;;;3.80;;
9115;SDS011;4593;53.652;10.168;2022-10-16T00:29:52;8.93;;;3.77;;
9115;SDS011;4593;53.652;10.168;2022-10-16T00:32:18;5.03;;;4.10;;
9115;SDS011;4593;53.652;10.168;2022-10-16T00:34:44;9.10;;;4.00;;
9115;SDS011;4593;53.652;10.168;2022-10-16T00:37:11;5.57;;;3.43;;
9115;SDS011;4593;53.652;10.168;2022-10-16T00:39:37;5.47;;;3.63;;
9115;SDS011;4593;53.652;10.168;2022-10-16T00:42:03;4.80;;;3.90;;
9115;SDS011;4593;53.652;10.168;2022-10-16T00:44:49;5.73;;;4.10;;
9115;SDS011;4593;53.652;10.168;2022-10-16T00:50:18;9.37;;;3.23;;
9115;SDS011;4593;53.652;10.168;2022-10-16T00:52:48;7.90;;;3.43;;
9115;SDS011;4593;53.652;10.168;2022-10-16T00:55:16;7.10;;;3.20;;
9115;SDS011;4593;53.652;10.168;2022-10-16T00:57:42;3.73;;;3.07;;
9115;SDS011;4593;53.652;10.168;2022-10-16T01:00:10;4.67;;;2.90;;
9115;SDS011;4593;53.652;10.168;2022-10-16T01:02:39;4.63;;;3.13;;
9115;SDS011;4593;53.652;10.168;2022-10-16T01:05:05;6.87;;;3.13;;
9115;SDS011;4593;53.652;10.168;2022-10-16T01:07:37;6.87;;;3.03;;
9115;SDS011;4593;53.652;10.168;2022-10-16T01:13:07;4.47;;;3.47;;
9115;SDS011;4593;53.652;10.168;2022-10-16T01:21:25;4.90;;;2.83;;
9115;SDS011;4593;53.652;10.168;2022-10-16T01:26:50;5.50;;;3.03;;
9115;SDS011;4593;53.652;10.168;2022-10-16T01:29:18;3.73;;;2.80;;
9115;SDS011;4593;53.652;10.168;2022-10-16T01:31:53;5.23;;;2.93;;
9115;SDS011;4593;53.652;10.168;2022-10-16T01:34:24;6.33;;;2.90;;
9115;SDS011;4593;53.652;10.168;2022-10-16T01:37:01;6.43;;;2.70;;
9115;SDS011;4593;53.652;10.168;2022-10-16T01:39:29;4.00;;;2.83;;
9115;SDS011;4593;53.652;10.168;2022-10-16T01:42:01;3.13;;;2.83;;
9115;SDS011;4593;53.652;10.168;2022-10-16T01:44:32;3.07;;;2.57;;
9115;SDS011;4593;53.652;10.168;2022-10-16T01:46:59;5.87;;;3.50;;
9115;SDS011;4593;53.652;10.168;2022-10-16T01:49:26;3.70;;;2.73;;
9115;SDS011;4593;53.652;10.168;2022-10-16T01:51:56;3.03;;;2.50;;
9115;SDS011;4593;53.652;10.168;2022-10-16T01:54:28;2.90;;;2.60;;
9115;SDS011;4593;53.652;10.168;2022-10-16T01:56:56;6.17;;;3.03;;
9115;SDS011;4593;53.652;10.168;2022-10-16T01:59:24;3.00;;;2.50;;
9115;SDS011;4593;53.652;10.168;2022-10-16T02:01:58;3.03;;;2.73;;
9115;SDS011;4593;53.652;10.168;2022-10-16T02:04:33;4.07;;;2.90;;
9115;SDS011;4593;53.652;10.168;2022-10-16T02:07:00;4.20;;;3.03;;
9115;SDS011;4593;53.652;10.168;2022-10-16T02:09:26;4.10;;;2.70;;
9115;SDS011;4593;53.652;10.168;2022-10-16T02:11:53;2.87;;;2.67;;
9115;SDS011;4593;53.652;10.168;2022-10-16T02:14:20;3.47;;;2.70;;
9115;SDS011;4593;53.652;10.168;2022-10-16T02:16:49;3.53;;;2.63;;
9115;SDS011;4593;53.652;10.168;2022-10-16T02:19:15;8.47;;;2.70;;
9115;SDS011;4593;53.652;10.168;2022-10-16T02:21:51;2.57;;;2.37;;
9115;SDS011;4593;53.652;10.168;2022-10-16T02:29:24;4.50;;;2.97;;
9115;SDS011;4593;53.652;10.168;2022-10-16T02:31:53;3.73;;;2.43;;
9115;SDS011;4593;53.652;10.168;2022-10-16T02:34:25;2.93;;;2.63;;
9115;SDS011;4593;53.652;10.168;2022-10-16T02:36:53;3.47;;;3.00;;
9115;SDS011;4593;53.652;10.168;2022-10-16T02:39:20;2.93;;;2.40;;
9115;SDS011;4593;53.652;10.168;2022-10-16T02:41:47;2.53;;;2.33;;
9115;SDS011;4593;53.652;10.168;2022-10-16T02:44:13;2.73;;;2.47;;
9115;SDS011;4593;53.652;10.168;2022-10-16T02:46:39;2.80;;;2.60;;
9115;SDS011;4593;53.652;10.168;2022-10-16T02:49:05;4.07;;;2.93;;
9115;SDS011;4593;53.652;10.168;2022-10-16T02:51:30;4.63;;;2.87;;
9115;SDS011;4593;53.652;10.168;2022-10-16T02:53:56;2.87;;;2.60;;
9115;SDS011;4593;53.652;10.168;2022-10-16T02:56:22;4.77;;;2.77;;
9115;SDS011;4593;53.652;10.168;2022-10-16T02:58:48;3.97;;;2.90;;
9115;SDS011;4593;53.652;10.168;2022-10-16T03:01:14;4.03;;;2.70;;
9115;SDS011;4593;53.652;10.168;2022-10-16T03:03:41;5.27;;;2.90;;
9115;SDS011;4593;53.652;10.168;2022-10-16T03:06:07;5.13;;;2.57;;
9115;SDS011;4593;53.652;10.168;2022-10-16T03:08:33;3.10;;;2.80;;
9115;SDS011;4593;53.652;10.168;2022-10-16T03:10:59;3.97;;;2.60;;
9115;SDS011;4593;53.652;10.168;2022-10-16T03:13:25;3.00;;;2.23;;
9115;SDS011;4593;53.652;10.168;2022-10-16T03:15:51;6.27;;;2.53;;
9115;SDS011;4593;53.652;10.168;2022-10-16T03:18:17;2.37;;;2.17;;
9115;SDS011;4593;53.652;10.168;2022-10-16T03:20:43;4.43;;;2.50;;
9115;SDS011;4593;53.652;10.168;2022-10-16T03:23:09;3.10;;;2.80;;
9115;SDS011;4593;53.652;10.168;2022-10-16T03:25:35;2.50;;;2.30;;
9115;SDS011;4593;53.652;10.168;2022-10-16T03:28:01;3.67;;;2.33;;
9115;SDS011;4593;53.652;10.168;2022-10-16T03:30:26;5.97;;;3.00;;
9115;SDS011;4593;53.652;10.168;2022-10-16T03:32:52;3.53;;;2.60;;
9115;SDS011;4593;53.652;10.168;2022-10-16T03:35:22;2.87;;;2.30;;
9115;SDS011;4593;53.652;10.168;2022-10-16T03:37:48;10.60;;;3.13;;
9115;SDS011;4593;53.652;10.168;2022-10-16T03:40:14;3.70;;;2.50;;
9115;SDS011;4593;53.652;10.168;2022-10-16T03:42:44;2.93;;;2.63;;
9115;SDS011;4593;53.652;10.168;2022-10-16T03:45:10;3.53;;;2.50;;
9115;SDS011;4593;53.652;10.168;2022-10-16T03:47:36;2.70;;;2.33;;
9115;SDS011;4593;53.652;10.168;2022-10-16T03:50:02;4.13;;;2.30;;
9115;SDS011;4593;53.652;10.168;2022-10-16T03:52:29;3.00;;;2.47;;
9115;SDS011;4593;53.652;10.168;2022-10-16T03:54:58;4.90;;;2.47;;
9115;SDS011;4593;53.652;10.168;2022-10-16T03:57:23;3.00;;;2.70;;
9115;SDS011;4593;53.652;10.168;2022-10-16T03:59:49;2.57;;;2.37;;
9115;SDS011;4593;53.652;10.168;2022-10-16T04:02:15;3.10;;;2.40;;
9115;SDS011;4593;53.652;10.168;2022-10-16T04:04:41;2.40;;;2.20;;
9115;SDS011;4593;53.652;10.168;2022-10-16T04:07:07;2.90;;;2.33;;
9115;SDS011;4593;53.652;10.168;2022-10-16T04:09:33;3.53;;;2.50;;
9115;SDS011;4593;53.652;10.168;2022-10-16T04:11:59;4.70;;;2.47;;
9115;SDS011;4593;53.652;10.168;2022-10-16T04:14:25;2.50;;;2.30;;
9115;SDS011;4593;53.652;10.168;2022-10-16T04:16:51;4.97;;;2.33;;
9115;SDS011;4593;53.652;10.168;2022-10-16T04:19:17;3.03;;;2.47;;
9115;SDS011;4593;53.652;10.168;2022-10-16T04:21:43;2.67;;;2.17;;
9115;SDS011;4593;53.652;10.168;2022-10-16T04:24:09;4.03;;;2.30;;
9115;SDS011;4593;53.652;10.168;2022-10-16T04:26:36;2.37;;;2.17;;
9115;SDS011;4593;53.652;10.168;2022-10-16T04:29:02;2.80;;;2.10;;
9115;SDS011;4593;53.652;10.168;2022-10-16T04:31:28;3.40;;;2.57;;
9115;SDS011;4593;53.652;10.168;2022-10-16T04:33:54;2.87;;;2.40;;
9115;SDS011;4593;53.652;10.168;2022-10-16T04:36:20;8.73;;;2.90;;
9115;SDS011;4593;53.652;10.168;2022-10-16T04:38:46;2.57;;;2.27;;
9115;SDS011;4593;53.652;10.168;2022-10-16T04:41:12;2.40;;;2.20;;
9115;SDS011;4593;53.652;10.168;2022-10-16T04:43:38;3.13;;;2.63;;
9115;SDS011;4593;53.652;10.168;2022-10-16T04:46:04;4.47;;;2.40;;
9115;SDS011;4593;53.652;10.168;2022-10-16T04:48:30;2.30;;;2.10;;
9115;SDS011;4593;53.652;10.168;2022-10-16T04:50:56;2.90;;;2.57;;
9115;SDS011;4593;53.652;10.168;2022-10-16T04:53:22;2.30;;;2.10;;
9115;SDS011;4593;53.652;10.168;2022-10-16T04:55:49;4.67;;;2.27;;
9115;SDS011;4593;53.652;10.168;2022-10-16T04:58:15;2.67;;;1.93;;
9115;SDS011;4593;53.652;10.168;2022-10-16T05:00:40;2.33;;;2.13;;
9115;SDS011;4593;53.652;10.168;2022-10-16T05:03:06;2.17;;;2.00;;
9115;SDS011;4593;53.652;10.168;2022-10-16T05:05:34;5.00;;;2.20;;
9115;SDS011;4593;53.652;10.168;2022-10-16T05:08:00;2.43;;;2.23;;
9115;SDS011;4593;53.652;10.168;2022-10-16T05:10:26;2.63;;;2.20;;
9115;SDS011;4593;53.652;10.168;2022-10-16T05:12:53;7.77;;;2.70;;
9115;SDS011;4593;53.652;10.168;2022-10-16T05:15:19;2.70;;;2.50;;
9115;SDS011;4593;53.652;10.168;2022-10-16T05:17:45;5.03;;;2.30;;
9115;SDS011;4593;53.652;10.168;2022-10-16T05:20:11;2.20;;;2.00;;
9115;SDS011;4593;53.652;10.168;2022-10-16T05:22:37;3.50;;;2.27;;
9115;SDS011;4593;53.652;10.168;2022-10-16T05:25:03;3.13;;;2.73;;
9115;SDS011;4593;53.652;10.168;2022-10-16T05:27:29;2.37;;;2.17;;
9115;SDS011;4593;53.652;10.168;2022-10-16T05:29:55;2.33;;;2.13;;
9115;SDS011;4593;53.652;10.168;2022-10-16T05:32:21;2.57;;;2.37;;
9115;SDS011;4593;53.652;10.168;2022-10-16T05:34:47;2.80;;;2.20;;
9115;SDS011;4593;53.652;10.168;2022-10-16T05:37:13;5.43;;;2.60;;
9115;SDS011;4593;53.652;10.168;2022-10-16T05:39:39;2.63;;;2.43;;
9115;SDS011;4593;53.652;10.168;2022-10-16T05:42:05;4.40;;;2.40;;
9115;SDS011;4593;53.652;10.168;2022-10-16T05:44:32;4.93;;;2.10;;
9115;SDS011;4593;53.652;10.168;2022-10-16T05:46:57;2.90;;;2.10;;
9115;SDS011;4593;53.652;10.168;2022-10-16T05:49:24;2.83;;;2.60;;
9115;SDS011;4593;53.652;10.168;2022-10-16T05:51:50;2.53;;;2.20;;
9115;SDS011;4593;53.652;10.168;2022-10-16T05:54:15;3.47;;;2.50;;
9115;SDS011;4593;53.652;10.168;2022-10-16T05:56:41;6.30;;;2.73;;
9115;SDS011;4593;53.652;10.168;2022-10-16T05:59:08;2.97;;;2.40;;
9115;SDS011;4593;53.652;10.168;2022-10-16T06:01:34;4.53;;;2.73;;
9115;SDS011;4593;53.652;10.168;2022-10-16T06:04:00;4.77;;;2.50;;
9115;SDS011;4593;53.652;10.168;2022-10-16T06:06:27;4.90;;;2.77;;
9115;SDS011;4593;53.652;10.168;2022-10-16T06:08:55;2.47;;;2.27;;
9115;SDS011;4593;53.652;10.168;2022-10-16T06:11:23;3.43;;;2.60;;
9115;SDS011;4593;53.652;10.168;2022-10-16T06:13:51;5.10;;;2.50;;
9115;SDS011;4593;53.652;10.168;2022-10-16T06:16:18;4.97;;;2.73;;
9115;SDS011;4593;53.652;10.168;2022-10-16T06:18:44;3.23;;;2.43;;
9115;SDS011;4593;53.652;10.168;2022-10-16T06:21:11;2.87;;;2.27;;
9115;SDS011;4593;53.652;10.168;2022-10-16T06:23:41;3.03;;;2.40;;
9115;SDS011;4593;53.652;10.168;2022-10-16T06:26:07;8.07;;;2.60;;
9115;SDS011;4593;53.652;10.168;2022-10-16T06:28:35;2.83;;;2.33;;
9115;SDS011;4593;53.652;10.168;2022-10-16T06:31:01;4.00;;;2.33;;
9115;SDS011;4593;53.652;10.168;2022-10-16T06:33:27;2.97;;;2.40;;
9115;SDS011;4593;53.652;10.168;2022-10-16T06:35:53;3.57;;;2.90;;
9115;SDS011;4593;53.652;10.168;2022-10-16T06:38:19;2.83;;;2.40;;
9115;SDS011;4593;53.652;10.168;2022-10-16T06:40:45;3.43;;;2.17;;
9115;SDS011;4593;53.652;10.168;2022-10-16T06:43:11;4.93;;;3.13;;
9115;SDS011;4593;53.652;10.168;2022-10-16T06:45:37;3.07;;;2.17;;
9115;SDS011;4593;53.652;10.168;2022-10-16T06:48:03;3.00;;;2.70;;
9115;SDS011;4593;53.652;10.168;2022-10-16T06:50:29;4.43;;;2.40;;
9115;SDS011;4593;53.652;10.168;2022-10-16T06:52:55;2.80;;;2.57;;
9115;SDS011;4593;53.652;10.168;2022-10-16T06:55:21;5.47;;;2.80;;
9115;SDS011;4593;53.652;10.168;2022-10-16T06:57:47;4.67;;;2.63;;
9115;SDS011;4593;53.652;10.168;2022-10-16T07:00:13;3.73;;;2.40;;
9115;SDS011;4593;53.652;10.168;2022-10-16T07:02:39;4.30;;;2.37;;
9115;SDS011;4593;53.652;10.168;2022-10-16T07:05:05;4.33;;;2.70;;
9115;SDS011;4593;53.652;10.168;2022-10-16T07:07:31;2.93;;;2.43;;
9115;SDS011;4593;53.652;10.168;2022-10-16T07:09:57;3.63;;;3.03;;
9115;SDS011;4593;53.652;10.168;2022-10-16T07:12:23;6.00;;;3.07;;
9115;SDS011;4593;53.652;10.168;2022-10-16T07:14:49;2.87;;;2.60;;
9115;SDS011;4593;53.652;10.168;2022-10-16T07:17:17;4.00;;;3.10;;
9115;SDS011;4593;53.652;10.168;2022-10-16T07:19:43;7.90;;;3.10;;
9115;SDS011;4593;53.652;10.168;2022-10-16T07:22:09;3.17;;;2.53;;
9115;SDS011;4593;53.652;10.168;2022-10-16T07:24:35;4.43;;;2.60;;
9115;SDS011;4593;53.652;10.168;2022-10-16T07:27:01;5.20;;;2.60;;
9115;SDS011;4593;53.652;10.168;2022-10-16T07:29:27;3.23;;;2.90;;
9115;SDS011;4593;53.652;10.168;2022-10-16T07:31:53;4.13;;;2.97;;
9115;SDS011;4593;53.652;10.168;2022-10-16T07:34:19;4.90;;;3.03;;
9115;SDS011;4593;53.652;10.168;2022-10-16T07:36:50;4.23;;;3.00;;
9115;SDS011;4593;53.652;10.168;2022-10-16T07:39:16;5.10;;;2.90;;
9115;SDS011;4593;53.652;10.168;2022-10-16T07:41:42;7.00;;;3.20;;
9115;SDS011;4593;53.652;10.168;2022-10-16T07:44:08;3.37;;;2.90;;
9115;SDS011;4593;53.652;10.168;2022-10-16T07:46:34;4.60;;;3.00;;
9115;SDS011;4593;53.652;10.168;2022-10-16T07:49:01;3.07;;;2.70;;
9115;SDS011;4593;53.652;10.168;2022-10-16T07:51:27;4.97;;;3.40;;
9115;SDS011;4593;53.652;10.168;2022-10-16T07:53:53;4.23;;;2.77;;
9115;SDS011;4593;53.652;10.168;2022-10-16T07:56:19;2.70;;;2.50;;
9115;SDS011;4593;53.652;10.168;2022-10-16T07:58:45;3.87;;;2.70;;
9115;SDS011;4593;53.652;10.168;2022-10-16T08:01:13;4.33;;;2.70;;
9115;SDS011;4593;53.652;10.168;2022-10-16T08:03:46;8.63;;;2.80;;
9115;SDS011;4593;53.652;10.168;2022-10-16T08:06:13;5.23;;;2.60;;
9115;SDS011;4593;53.652;10.168;2022-10-16T08:08:39;4.03;;;3.00;;
9115;SDS011;4593;53.652;10.168;2022-10-16T08:11:05;4.53;;;2.90;;
9115;SDS011;4593;53.652;10.168;2022-10-16T08:13:31;2.87;;;2.67;;
9115;SDS011;4593;53.652;10.168;2022-10-16T08:15:57;4.70;;;2.60;;
9115;SDS011;4593;53.652;10.168;2022-10-16T08:18:23;2.73;;;2.40;;
9115;SDS011;4593;53.652;10.168;2022-10-16T08:20:55;2.70;;;2.30;;
9115;SDS011;4593;53.652;10.168;2022-10-16T08:23:21;2.80;;;2.30;;
9115;SDS011;4593;53.652;10.168;2022-10-16T08:25:48;4.50;;;2.30;;
9115;SDS011;4593;53.652;10.168;2022-10-16T08:28:13;4.90;;;2.63;;
9115;SDS011;4593;53.652;10.168;2022-10-16T08:30:40;7.77;;;2.63;;
9115;SDS011;4593;53.652;10.168;2022-10-16T08:33:06;3.00;;;2.50;;
9115;SDS011;4593;53.652;10.168;2022-10-16T08:35:31;5.53;;;2.97;;
9115;SDS011;4593;53.652;10.168;2022-10-16T08:37:57;3.30;;;2.53;;
9115;SDS011;4593;53.652;10.168;2022-10-16T08:40:25;2.83;;;2.43;;
9115;SDS011;4593;53.652;10.168;2022-10-16T08:45:42;2.87;;;2.37;;
9115;SDS011;4593;53.652;10.168;2022-10-16T08:48:17;3.60;;;2.27;;
9115;SDS011;4593;53.652;10.168;2022-10-16T08:51:00;5.63;;;2.13;;
9115;SDS011;4593;53.652;10.168;2022-10-16T08:53:31;2.37;;;2.17;;
9115;SDS011;4593;53.652;10.168;2022-10-16T08:56:11;2.60;;;2.17;;
9115;SDS011;4593;53.652;10.168;2022-10-16T08:58:37;2.90;;;2.23;;
9115;SDS011;4593;53.652;10.168;2022-10-16T09:01:10;7.00;;;2.17;;
9115;SDS011;4593;53.652;10.168;2022-10-16T09:11:55;7.13;;;2.13;;
9115;SDS011;4593;53.652;10.168;2022-10-16T09:17:03;4.90;;;2.20;;
9115;SDS011;4593;53.652;10.168;2022-10-16T09:19:37;1.90;;;1.70;;
9115;SDS011;4593;53.652;10.168;2022-10-16T09:22:12;3.03;;;2.13;;
9115;SDS011;4593;53.652;10.168;2022-10-16T09:24:40;2.47;;;2.00;;
9115;SDS011;4593;53.652;10.168;2022-10-16T09:27:15;3.23;;;2.13;;
9115;SDS011;4593;53.652;10.168;2022-10-16T09:29:41;4.60;;;2.23;;
9115;SDS011;4593;53.652;10.168;2022-10-16T09:32:15;2.07;;;1.87;;
9115;SDS011;4593;53.652;10.168;2022-10-16T09:35:01;2.07;;;1.87;;
9115;SDS011;4593;53.652;10.168;2022-10-16T09:37:27;8.67;;;2.20;;
9115;SDS011;4593;53.652;10.168;2022-10-16T09:39:53;4.13;;;1.87;;
9115;SDS011;4593;53.652;10.168;2022-10-16T09:42:27;2.33;;;1.80;;
9115;SDS011;4593;53.652;10.168;2022-10-16T09:44:56;1.87;;;1.77;;
9115;SDS011;4593;53.652;10.168;2022-10-16T09:47:23;6.03;;;2.27;;
9115;SDS011;4593;53.652;10.168;2022-10-16T09:50:01;5.10;;;2.07;;
9115;SDS011;4593;53.652;10.168;2022-10-16T09:52:31;2.10;;;1.90;;
9115;SDS011;4593;53.652;10.168;2022-10-16T09:54:58;7.73;;;1.90;;
9115;SDS011;4593;53.652;10.168;2022-10-16T09:57:24;3.47;;;2.07;;
9115;SDS011;4593;53.652;10.168;2022-10-16T09:59:51;2.63;;;2.07;;
9115;SDS011;4593;53.652;10.168;2022-10-16T10:02:21;6.50;;;1.83;;
9115;SDS011;4593;53.652;10.168;2022-10-16T10:04:52;4.07;;;2.47;;
9115;SDS011;4593;53.652;10.168;2022-10-16T10:07:26;2.40;;;1.90;;
9115;SDS011;4593;53.652;10.168;2022-10-16T10:10:05;2.20;;;1.60;;
9115;SDS011;4593;53.652;10.168;2022-10-16T10:12:32;1.87;;;1.50;;
9115;SDS011;4593;53.652;10.168;2022-10-16T10:15:06;2.80;;;1.90;;
9115;SDS011;4593;53.652;10.168;2022-10-16T10:17:46;3.57;;;2.13;;
9115;SDS011;4593;53.652;10.168;2022-10-16T10:20:33;5.93;;;1.70;;
9115;SDS011;4593;53.652;10.168;2022-10-16T10:22:59;2.00;;;1.80;;
9115;SDS011;4593;53.652;10.168;2022-10-16T10:30:46;2.40;;;1.80;;
9115;SDS011;4593;53.652;10.168;2022-10-16T10:33:25;2.33;;;1.80;;
9115;SDS011;4593;53.652;10.168;2022-10-16T10:36:05;4.63;;;1.90;;
9115;SDS011;4593;53.652;10.168;2022-10-16T10:46:50;2.67;;;1.90;;
9115;SDS011;4593;53.652;10.168;2022-10-16T11:08:13;2.37;;;1.80;;
9115;SDS011;4593;53.652;10.168;2022-10-16T11:10:49;1.80;;;1.40;;
9115;SDS011;4593;53.652;10.168;2022-10-16T11:16:02;3.87;;;2.10;;
9115;SDS011;4593;53.652;10.168;2022-10-16T11:18:30;3.20;;;1.47;;
9115;SDS011;4593;53.652;10.168;2022-10-16T11:21:08;3.27;;;1.80;;
9115;SDS011;4593;53.652;10.168;2022-10-16T11:24:14;1.60;;;1.50;;
9115;SDS011;4593;53.652;10.168;2022-10-16T11:26:33;1.50;;;1.40;;
9115;SDS011;4593;53.652;10.168;2022-10-16T11:29:00;3.40;;;1.77;;
9115;SDS011;4593;53.652;10.168;2022-10-16T11:36:45;1.60;;;1.37;;
9115;SDS011;4593;53.652;10.168;2022-10-16T11:42:48;1.77;;;1.67;;
9115;SDS011;4593;53.652;10.168;2022-10-16T11:49:34;14.93;;;1.83;;
9115;SDS011;4593;53.652;10.168;2022-10-16T11:52:12;2.77;;;1.97;;
9115;SDS011;4593;53.652;10.168;2022-10-16T11:57:35;1.57;;;1.40;;
9115;SDS011;4593;53.652;10.168;2022-10-16T12:00:14;10.47;;;1.87;;
9115;SDS011;4593;53.652;10.168;2022-10-16T12:08:09;1.70;;;1.43;;
9115;SDS011;4593;53.652;10.168;2022-10-16T12:10:37;1.60;;;1.50;;
9115;SDS011;4593;53.652;10.168;2022-10-16T12:13:05;2.73;;;1.53;;
9115;SDS011;4593;53.652;10.168;2022-10-16T12:15:50;3.80;;;1.63;;
9115;SDS011;4593;53.652;10.168;2022-10-16T12:18:20;7.87;;;1.70;;
9115;SDS011;4593;53.652;10.168;2022-10-16T12:20:53;1.83;;;1.60;;
9115;SDS011;4593;53.652;10.168;2022-10-16T12:23:25;2.13;;;1.60;;
9115;SDS011;4593;53.652;10.168;2022-10-16T12:25:55;4.13;;;1.77;;
9115;SDS011;4593;53.652;10.168;2022-10-16T12:28:25;1.57;;;1.47;;
9115;SDS011;4593;53.652;10.168;2022-10-16T12:31:01;3.73;;;1.60;;
9115;SDS011;4593;53.652;10.168;2022-10-16T12:35:54;3.83;;;1.70;;
9115;SDS011;4593;53.652;10.168;2022-10-16T12:38:21;7.37;;;2.00;;
9115;SDS011;4593;53.652;10.168;2022-10-16T12:41:12;1.80;;;1.60;;
9115;SDS011;4593;53.652;10.168;2022-10-16T12:43:46;1.97;;;1.63;;
9115;SDS011;4593;53.652;10.168;2022-10-16T12:48:39;2.53;;;1.83;;
9115;SDS011;4593;53.652;10.168;2022-10-16T12:51:19;3.30;;;1.87;;
9115;SDS011;4593;53.652;10.168;2022-10-16T12:54:37;1.73;;;1.63;;
9115;SDS011;4593;53.652;10.168;2022-10-16T13:02:30;2.23;;;1.50;;
9115;SDS011;4593;53.652;10.168;2022-10-16T13:05:17;3.17;;;1.53;;
9115;SDS011;4593;53.652;10.168;2022-10-16T13:07:56;2.20;;;1.80;;
9115;SDS011;4593;53.652;10.168;2022-10-16T13:18:26;7.80;;;1.70;;
9115;SDS011;4593;53.652;10.168;2022-10-16T13:29:22;5.90;;;1.73;;
9115;SDS011;4593;53.652;10.168;2022-10-16T13:31:48;1.60;;;1.43;;
9115;SDS011;4593;53.652;10.168;2022-10-16T13:34:18;3.43;;;1.50;;
9115;SDS011;4593;53.652;10.168;2022-10-16T13:36:47;5.47;;;1.73;;
9115;SDS011;4593;53.652;10.168;2022-10-16T13:39:26;2.43;;;1.60;;
9115;SDS011;4593;53.652;10.168;2022-10-16T13:42:06;5.90;;;1.83;;
9115;SDS011;4593;53.652;10.168;2022-10-16T13:44:41;2.73;;;1.50;;
9115;SDS011;4593;53.652;10.168;2022-10-16T13:47:15;2.90;;;1.70;;
9115;SDS011;4593;53.652;10.168;2022-10-16T13:49:42;2.53;;;1.60;;
9115;SDS011;4593;53.652;10.168;2022-10-16T13:52:20;1.63;;;1.53;;
9115;SDS011;4593;53.652;10.168;2022-10-16T13:54:46;1.47;;;1.37;;
9115;SDS011;4593;53.652;10.168;2022-10-16T13:57:13;1.67;;;1.50;;
9115;SDS011;4593;53.652;10.168;2022-10-16T13:59:40;3.23;;;1.90;;
9115;SDS011;4593;53.652;10.168;2022-10-16T14:04:41;3.80;;;1.70;;
9115;SDS011;4593;53.652;10.168;2022-10-16T14:07:12;4.43;;;1.60;;
9115;SDS011;4593;53.652;10.168;2022-10-16T14:09:39;1.70;;;1.60;;
9115;SDS011;4593;53.652;10.168;2022-10-16T14:12:10;4.20;;;2.27;;
9115;SDS011;4593;53.652;10.168;2022-10-16T14:14:44;1.80;;;1.60;;
9115;SDS011;4593;53.652;10.168;2022-10-16T14:19:58;3.53;;;2.20;;
9115;SDS011;4593;53.652;10.168;2022-10-16T14:22:35;4.13;;;1.70;;
9115;SDS011;4593;53.652;10.168;2022-10-16T14:30:28;1.80;;;1.60;;
9115;SDS011;4593;53.652;10.168;2022-10-16T14:32:58;3.67;;;1.40;;
9115;SDS011;4593;53.652;10.168;2022-10-16T14:35:28;1.60;;;1.50;;
9115;SDS011;4593;53.652;10.168;2022-10-16T14:38:01;1.70;;;1.40;;
9115;SDS011;4593;53.652;10.168;2022-10-16T14:40:29;10.10;;;1.70;;
9115;SDS011;4593;53.652;10.168;2022-10-16T14:42:55;3.43;;;1.53;;
9115;SDS011;4593;53.652;10.168;2022-10-16T14:45:23;1.77;;;1.50;;
9115;SDS011;4593;53.652;10.168;2022-10-16T14:47:55;2.30;;;1.40;;
9115;SDS011;4593;53.652;10.168;2022-10-16T14:50:22;1.80;;;1.40;;
9115;SDS011;4593;53.652;10.168;2022-10-16T14:52:48;5.80;;;1.73;;
9115;SDS011;4593;53.652;10.168;2022-10-16T14:55:14;1.83;;;1.70;;
9115;SDS011;4593;53.652;10.168;2022-10-16T14:57:40;8.50;;;1.90;;
9115;SDS011;4593;53.652;10.168;2022-10-16T15:00:10;1.93;;;1.60;;
9115;SDS011;4593;53.652;10.168;2022-10-16T15:02:44;1.70;;;1.50;;
9115;SDS011;4593;53.652;10.168;2022-10-16T15:05:18;2.90;;;1.70;;
9115;SDS011;4593;53.652;10.168;2022-10-16T15:07:44;2.27;;;1.90;;
9115;SDS011;4593;53.652;10.168;2022-10-16T15:10:11;1.67;;;1.57;;
9115;SDS011;4593;53.652;10.168;2022-10-16T15:12:38;3.57;;;1.47;;
9115;SDS011;4593;53.652;10.168;2022-10-16T15:17:48;2.70;;;1.63;;
9115;SDS011;4593;53.652;10.168;2022-10-16T15:20:17;5.03;;;1.80;;
9115;SDS011;4593;53.652;10.168;2022-10-16T15:22:43;1.60;;;1.50;;
9115;SDS011;4593;53.652;10.168;2022-10-16T15:25:52;3.00;;;1.70;;
9115;SDS011;4593;53.652;10.168;2022-10-16T15:28:01;2.60;;;1.80;;
9115;SDS011;4593;53.652;10.168;2022-10-16T15:30:28;1.93;;;1.50;;
9115;SDS011;4593;53.652;10.168;2022-10-16T15:32:54;1.60;;;1.50;;
9115;SDS011;4593;53.652;10.168;2022-10-16T15:35:20;3.03;;;1.60;;
9115;SDS011;4593;53.652;10.168;2022-10-16T15:37:46;1.87;;;1.60;;
9115;SDS011;4593;53.652;10.168;2022-10-16T15:40:13;2.07;;;1.70;;
9115;SDS011;4593;53.652;10.168;2022-10-16T15:42:39;2.77;;;1.57;;
9115;SDS011;4593;53.652;10.168;2022-10-16T15:45:05;6.13;;;1.97;;
9115;SDS011;4593;53.652;10.168;2022-10-16T15:47:31;6.63;;;1.73;;
9115;SDS011;4593;53.652;10.168;2022-10-16T15:49:58;1.90;;;1.70;;
9115;SDS011;4593;53.652;10.168;2022-10-16T15:52:24;1.60;;;1.50;;
9115;SDS011;4593;53.652;10.168;2022-10-16T15:54:50;4.17;;;1.60;;
9115;SDS011;4593;53.652;10.168;2022-10-16T15:57:15;1.70;;;1.60;;
9115;SDS011;4593;53.652;10.168;2022-10-16T15:59:41;3.90;;;1.60;;
9115;SDS011;4593;53.652;10.168;2022-10-16T16:02:08;3.97;;;2.00;;
9115;SDS011;4593;53.652;10.168;2022-10-16T16:04:34;2.90;;;1.83;;
9115;SDS011;4593;53.652;10.168;2022-10-16T16:07:00;1.77;;;1.67;;
9115;SDS011;4593;53.652;10.168;2022-10-16T16:09:28;2.87;;;1.90;;
9115;SDS011;4593;53.652;10.168;2022-10-16T16:11:54;3.23;;;1.77;;
9115;SDS011;4593;53.652;10.168;2022-10-16T16:14:20;2.73;;;1.83;;
9115;SDS011;4593;53.652;10.168;2022-10-16T16:16:46;4.87;;;2.13;;
9115;SDS011;4593;53.652;10.168;2022-10-16T16:19:12;2.47;;;1.90;;
9115;SDS011;4593;53.652;10.168;2022-10-16T16:21:41;2.03;;;1.83;;
9115;SDS011;4593;53.652;10.168;2022-10-16T16:24:06;2.87;;;1.80;;
9115;SDS011;4593;53.652;10.168;2022-10-16T16:26:33;3.73;;;2.00;;
9115;SDS011;4593;53.652;10.168;2022-10-16T16:29:01;7.77;;;2.07;;
9115;SDS011;4593;53.652;10.168;2022-10-16T16:31:29;2.10;;;1.90;;
9115;SDS011;4593;53.652;10.168;2022-10-16T16:33:55;3.33;;;1.90;;
9115;SDS011;4593;53.652;10.168;2022-10-16T16:36:22;2.17;;;1.97;;
9115;SDS011;4593;53.652;10.168;2022-10-16T16:38:49;5.20;;;2.27;;
9115;SDS011;4593;53.652;10.168;2022-10-16T16:41:25;3.40;;;2.30;;
9115;SDS011;4593;53.652;10.168;2022-10-16T16:43:53;2.00;;;1.90;;
9115;SDS011;4593;53.652;10.168;2022-10-16T16:46:19;2.27;;;2.07;;
9115;SDS011;4593;53.652;10.168;2022-10-16T16:48:46;4.20;;;2.30;;
9115;SDS011;4593;53.652;10.168;2022-10-16T16:51:16;2.00;;;1.90;;
9115;SDS011;4593;53.652;10.168;2022-10-16T16:53:49;2.30;;;1.97;;
9115;SDS011;4593;53.652;10.168;2022-10-16T16:56:15;2.63;;;2.00;;
9115;SDS011;4593;53.652;10.168;2022-10-16T16:58:41;9.77;;;2.00;;
9115;SDS011;4593;53.652;10.168;2022-10-16T17:01:09;3.60;;;1.80;;
9115;SDS011;4593;53.652;10.168;2022-10-16T17:03:35;2.97;;;2.17;;
9115;SDS011;4593;53.652;10.168;2022-10-16T17:06:06;2.40;;;1.80;;
9115;SDS011;4593;53.652;10.168;2022-10-16T17:08:33;2.03;;;1.73;;
9115;SDS011;4593;53.652;10.168;2022-10-16T17:11:00;2.17;;;1.97;;
9115;SDS011;4593;53.652;10.168;2022-10-16T17:13:27;3.97;;;2.00;;
9115;SDS011;4593;53.652;10.168;2022-10-16T17:15:53;4.40;;;2.00;;
9115;SDS011;4593;53.652;10.168;2022-10-16T17:18:20;3.67;;;1.90;;